Gazpromneft East — UBOF4 — position and weather

sailwx.info

Track history (hours):
 
Tides and Currents Weather Stations Pressure Air Temp Water Temp Dewpoint Dewpoint Depression Visibility Wind Speed Wind Dir Waves Ship Positions

Gazpromneft East

Last reported at 2017-Mar-29 20:33 UTC. Time now 2017-Mar-29 21:01 UTC.
Position N 59°41' E 028°25'.

Length 79 m; draft 4.1 m.

Type: Tanker. MMSI: 273335320.

Date/timePositionNaut miles runAvg speedWind from/ knotsBaromVisibWave heightAir tempDewpointWater temp
2017-Mar-29 20:33N 59°41' E 028°25'0 0.0
2017-Mar-29 19:33N 59°41' E 028°25'0 0.0
2017-Mar-29 18:33N 59°41' E 028°25'0 0.0
2017-Mar-29 17:33N 59°41' E 028°25'0 0.0
2017-Mar-29 16:33N 59°41' E 028°25'0 0.0
2017-Mar-29 15:33N 59°41' E 028°25'0 0.0
2017-Mar-29 14:33N 59°41' E 028°25'0 0.0
2017-Mar-29 13:33N 59°41' E 028°25'0 0.0
2017-Mar-29 12:33N 59°41' E 028°25'0 0.0
2017-Mar-29 11:33N 59°41' E 028°25'0 0.2
2017-Mar-29 10:33N 59°41' E 028°25'0 0.0
2017-Mar-29 09:33N 59°41' E 028°25'0 0.0
2017-Mar-29 08:33N 59°41' E 028°25'0 0.0
2017-Mar-29 07:33N 59°41' E 028°25'0 0.0
2017-Mar-29 06:33N 59°41' E 028°25'0 0.0
2017-Mar-29 05:33N 59°41' E 028°25'0 0.0
2017-Mar-29 04:33N 59°41' E 028°25'0 0.0
2017-Mar-29 03:33N 59°41' E 028°25'0 0.0
2017-Mar-29 02:33N 59°41' E 028°25'0 0.0
2017-Mar-29 01:33N 59°41' E 028°25'0 0.4
2017-Mar-29 00:33N 59°41' E 028°25'10 9.7
2017-Mar-28 23:32N 59°51' E 028°26'9 9.2
2017-Mar-28 22:33N 59°59' E 028°35'1 1.2
2017-Mar-28 21:33N 60°00' E 028°35'0 0.1
2017-Mar-28 20:33N 60°00' E 028°35'0 0.4
2017-Mar-28 19:34N 60°01' E 028°36'2 2.4
2017-Mar-28 18:33N 60°03' E 028°38'3 3.0
2017-Mar-28 17:33N 60°03' E 028°44'26 6.4
2017-Mar-28 13:31N 60°01' E 029°35'7 1.2
2017-Mar-28 07:14N 59°56' E 029°46'0 0.0
2017-Mar-28 03:30N 59°56' E 029°46'0 0.0
2017-Mar-27 23:33N 59°56' E 029°46'0 0.0
2017-Mar-27 21:33N 59°56' E 029°46'0 0.0
2017-Mar-27 20:30N 59°56' E 029°46'0 0.0
2017-Mar-27 15:27N 59°56' E 029°46'0 0.0
2017-Mar-27 14:33N 59°56' E 029°46'0 0.0
2017-Mar-26 20:28N 59°56' E 029°46'0 0.0
2017-Mar-26 19:33N 59°56' E 029°46'0 0.0
2017-Mar-26 18:33N 59°56' E 029°46'0 0.0
2017-Mar-26 17:30N 59°56' E 029°46'0 0.0
2017-Mar-26 16:32N 59°56' E 029°46'0 0.0
2017-Mar-26 15:31N 59°56' E 029°46'0 0.0
2017-Mar-26 13:03N 59°56' E 029°46'0 0.0
2017-Mar-26 12:33N 59°56' E 029°46'1 0.1
2017-Mar-26 04:33N 59°57' E 029°47'22 1.7
2017-Mar-25 15:20N 60°01' E 029°04'5 6.0
2017-Mar-25 14:33N 59°59' E 028°56'1212.0
2017-Mar-25 13:33N 59°53' E 028°35'8 7.8
2017-Mar-25 12:33N 59°47' E 028°25'0 0.0
2017-Mar-25 11:33N 59°47' E 028°25'0 0.0
2017-Mar-25 10:33N 59°47' E 028°25'0 0.0
2017-Mar-25 09:33N 59°47' E 028°25'0 0.0
2017-Mar-25 08:33N 59°47' E 028°25'0 0.0
2017-Mar-25 07:33N 59°47' E 028°25'0 0.0
2017-Mar-25 06:32N 59°47' E 028°25'0 0.0
2017-Mar-25 05:33N 59°47' E 028°25'0 0.0
2017-Mar-25 04:34N 59°47' E 028°25'0 0.0
2017-Mar-25 03:34N 59°47' E 028°25'0 0.0
2017-Mar-25 02:34N 59°47' E 028°25'0 0.1
2017-Mar-25 01:33N 59°47' E 028°25'0 0.0
2017-Mar-25 00:33N 59°47' E 028°25'0 0.1
2017-Mar-24 23:33N 59°47' E 028°25'0 0.0
2017-Mar-24 22:33N 59°47' E 028°25'0 0.0
2017-Mar-24 21:33N 59°47' E 028°25'0 0.0
2017-Mar-24 20:33N 59°47' E 028°25'0 0.0
2017-Mar-24 19:33N 59°47' E 028°25'1 0.5
2017-Mar-24 18:17N 59°46' E 028°25'5 5.8
2017-Mar-24 17:28N 59°42' E 028°22'0 0.0
2017-Mar-24 16:28N 59°42' E 028°22'0 0.0
2017-Mar-24 15:31N 59°42' E 028°22'0 0.0
2017-Mar-24 14:31N 59°42' E 028°22'0 0.0
2017-Mar-24 13:31N 59°42' E 028°22'0 0.0
2017-Mar-24 12:31N 59°42' E 028°22'0 0.0
2017-Mar-24 11:31N 59°42' E 028°22'0 0.0
2017-Mar-24 10:31N 59°42' E 028°22'0 0.0
2017-Mar-24 08:31N 59°42' E 028°22'0 0.0
2017-Mar-24 07:31N 59°42' E 028°22'2 1.9
2017-Mar-24 06:33N 59°41' E 028°25'0 0.0
2017-Mar-24 05:33N 59°41' E 028°25'0 0.0
2017-Mar-24 04:33N 59°41' E 028°25'0 0.0
2017-Mar-24 03:33N 59°41' E 028°25'0 0.0
2017-Mar-24 02:33N 59°41' E 028°25'0 0.0
2017-Mar-24 01:33N 59°41' E 028°25'0 0.0
2017-Mar-24 00:33N 59°41' E 028°25'0 0.1
2017-Mar-23 23:34N 59°41' E 028°25'2 1.8
2017-Mar-23 22:33N 59°42' E 028°21'0 0.0
2017-Mar-23 20:24N 59°42' E 028°21'0 0.0
2017-Mar-23 19:33N 59°42' E 028°21'0 0.0
2017-Mar-23 18:24N 59°42' E 028°21'2 0.8
2017-Mar-23 15:33N 59°44' E 028°23'8 7.8
2017-Mar-23 14:33N 59°51' E 028°28'1110.7
2017-Mar-23 13:33N 59°56' E 028°47'30 3.3
2017-Mar-23 04:33N 59°56' E 029°46'0 0.0
2017-Mar-23 03:17N 59°56' E 029°46'0 0.0
2017-Mar-23 02:23N 59°56' E 029°46'0 0.0
2017-Mar-23 01:33N 59°56' E 029°46'0 0.0
2017-Mar-23 00:33N 59°56' E 029°46'0 0.0
2017-Mar-22 23:32N 59°56' E 029°46'0 0.0
2017-Mar-22 22:33N 59°56' E 029°46'1 1.4
2017-Mar-22 21:33N 59°57' E 029°47'9 9.2
2017-Mar-22 20:33N 59°54' E 030°05'5 4.5
2017-Mar-22 19:33N 59°53' E 030°13'0 0.1
2017-Mar-22 18:33N 59°53' E 030°14'0 0.0
2017-Mar-22 17:33N 59°53' E 030°14'0 0.0
2017-Mar-22 16:33N 59°53' E 030°14'0 0.0
2017-Mar-22 15:33N 59°53' E 030°14'0 0.0
2017-Mar-22 14:33N 59°53' E 030°14'0 0.0
2017-Mar-22 13:33N 59°53' E 030°14'0 0.0
2017-Mar-22 12:33N 59°53' E 030°14'0 0.0
2017-Mar-22 11:34N 59°53' E 030°14'0 0.0
2017-Mar-22 10:33N 59°53' E 030°14'0 0.0
2017-Mar-22 09:33N 59°53' E 030°14'0 0.0
2017-Mar-22 08:33N 59°53' E 030°14'0 0.1
2017-Mar-22 07:33N 59°53' E 030°13'0 0.0
2017-Mar-22 06:33N 59°53' E 030°13'0 0.0
2017-Mar-22 05:33N 59°53' E 030°13'0 0.0
2017-Mar-22 04:33N 59°53' E 030°13'1 1.3
2017-Mar-22 03:33N 59°53' E 030°11'9 9.0
2017-Mar-22 02:33N 59°56' E 029°54'28 3.5
2017-Mar-21 18:33N 60°01' E 028°60'1211.8
2017-Mar-21 17:33N 60°02' E 028°36'5 5.3
2017-Mar-21 16:33N 60°07' E 028°31'12 3.8
2017-Mar-21 13:17N 60°16' E 028°47'5 4.0
2017-Mar-21 12:03N 60°20' E 028°42'0 0.0
2017-Mar-21 11:32N 60°20' E 028°42'0 0.0
2017-Mar-21 10:29N 60°20' E 028°42'0 0.0
2017-Mar-21 09:30N 60°20' E 028°42'0 0.0
2017-Mar-21 08:33N 60°20' E 028°42'0 0.0
2017-Mar-21 07:30N 60°20' E 028°42'0 0.0
2017-Mar-21 06:33N 60°20' E 028°42'0 0.0
2017-Mar-21 05:33N 60°20' E 028°42'0 0.0
2017-Mar-21 04:15N 60°20' E 028°42'0 0.0
2017-Mar-21 03:25N 60°20' E 028°42'0 0.0
2017-Mar-21 01:07N 60°20' E 028°42'0 0.0
2017-Mar-21 00:20N 60°20' E 028°42'0 0.0
2017-Mar-20 23:28N 60°20' E 028°42'0 0.0
2017-Mar-20 22:32N 60°20' E 028°42'0 0.0
2017-Mar-20 17:28N 60°20' E 028°42'2 2.3
2017-Mar-20 16:29N 60°18' E 028°44'0 0.0
2017-Mar-20 15:33N 60°18' E 028°44'0 0.0
2017-Mar-20 14:33N 60°18' E 028°44'0 0.0
2017-Mar-20 13:33N 60°18' E 028°44'0 0.0
2017-Mar-20 12:33N 60°18' E 028°44'0 0.0
2017-Mar-20 11:33N 60°18' E 028°44'0 0.0
2017-Mar-20 10:27N 60°18' E 028°44'0 0.0
2017-Mar-20 09:33N 60°18' E 028°44'0 0.0
2017-Mar-20 08:33N 60°18' E 028°44'0 0.0
2017-Mar-20 07:33N 60°18' E 028°44'0 0.0
2017-Mar-20 06:33N 60°18' E 028°44'0 0.0
2017-Mar-20 05:33N 60°18' E 028°44'0 0.0
2017-Mar-20 04:33N 60°18' E 028°44'0 0.0
2017-Mar-20 03:33N 60°18' E 028°44'0 0.0
2017-Mar-20 02:32N 60°18' E 028°44'4 2.8
2017-Mar-20 01:09N 60°15' E 028°47'5 8.9
2017-Mar-20 00:33N 60°10' E 028°42'7 7.4
2017-Mar-19 23:33N 60°07' E 028°29'9 9.4
2017-Mar-19 22:33N 59°58' E 028°36'1211.6
2017-Mar-19 21:33N 59°47' E 028°25'  
Track history (hours):
 
Tides and Currents Weather Stations Pressure Air Temp Water Temp Dewpoint Dewpoint Depression Visibility Wind Speed Wind Dir Waves Ship Positions

Gazpromneft East

Last reported at 2017-Mar-29 20:33 UTC. Time now 2017-Mar-29 21:01 UTC.
Position N 59°41' E 028°25'.

Length 79 m; draft 4.1 m.

Type: Tanker. MMSI: 273335320.

Date/timePositionNaut miles runAvg speedWind from/ knotsBaromVisibWave heightAir tempDewpointWater temp
2017-Mar-29 20:33N 59°41' E 028°25'0 0.0
2017-Mar-29 19:33N 59°41' E 028°25'0 0.0
2017-Mar-29 18:33N 59°41' E 028°25'0 0.0
2017-Mar-29 17:33N 59°41' E 028°25'0 0.0
2017-Mar-29 16:33N 59°41' E 028°25'0 0.0
2017-Mar-29 15:33N 59°41' E 028°25'0 0.0
2017-Mar-29 14:33N 59°41' E 028°25'0 0.0
2017-Mar-29 13:33N 59°41' E 028°25'0 0.0
2017-Mar-29 12:33N 59°41' E 028°25'0 0.0
2017-Mar-29 11:33N 59°41' E 028°25'0 0.2
2017-Mar-29 10:33N 59°41' E 028°25'0 0.0
2017-Mar-29 09:33N 59°41' E 028°25'0 0.0
2017-Mar-29 08:33N 59°41' E 028°25'0 0.0
2017-Mar-29 07:33N 59°41' E 028°25'0 0.0
2017-Mar-29 06:33N 59°41' E 028°25'0 0.0
2017-Mar-29 05:33N 59°41' E 028°25'0 0.0
2017-Mar-29 04:33N 59°41' E 028°25'0 0.0
2017-Mar-29 03:33N 59°41' E 028°25'0 0.0
2017-Mar-29 02:33N 59°41' E 028°25'0 0.0
2017-Mar-29 01:33N 59°41' E 028°25'0 0.4
2017-Mar-29 00:33N 59°41' E 028°25'10 9.7
2017-Mar-28 23:32N 59°51' E 028°26'9 9.2
2017-Mar-28 22:33N 59°59' E 028°35'1 1.2
2017-Mar-28 21:33N 60°00' E 028°35'0 0.1
2017-Mar-28 20:33N 60°00' E 028°35'0 0.4
2017-Mar-28 19:34N 60°01' E 028°36'2 2.4
2017-Mar-28 18:33N 60°03' E 028°38'3 3.0
2017-Mar-28 17:33N 60°03' E 028°44'26 6.4
2017-Mar-28 13:31N 60°01' E 029°35'7 1.2
2017-Mar-28 07:14N 59°56' E 029°46'0 0.0
2017-Mar-28 03:30N 59°56' E 029°46'0 0.0
2017-Mar-27 23:33N 59°56' E 029°46'0 0.0
2017-Mar-27 21:33N 59°56' E 029°46'0 0.0
2017-Mar-27 20:30N 59°56' E 029°46'0 0.0
2017-Mar-27 15:27N 59°56' E 029°46'0 0.0
2017-Mar-27 14:33N 59°56' E 029°46'0 0.0
2017-Mar-26 20:28N 59°56' E 029°46'0 0.0
2017-Mar-26 19:33N 59°56' E 029°46'0 0.0
2017-Mar-26 18:33N 59°56' E 029°46'0 0.0
2017-Mar-26 17:30N 59°56' E 029°46'0 0.0
2017-Mar-26 16:32N 59°56' E 029°46'0 0.0
2017-Mar-26 15:31N 59°56' E 029°46'0 0.0
2017-Mar-26 13:03N 59°56' E 029°46'0 0.0
2017-Mar-26 12:33N 59°56' E 029°46'1 0.1
2017-Mar-26 04:33N 59°57' E 029°47'22 1.7
2017-Mar-25 15:20N 60°01' E 029°04'5 6.0
2017-Mar-25 14:33N 59°59' E 028°56'1212.0
2017-Mar-25 13:33N 59°53' E 028°35'8 7.8
2017-Mar-25 12:33N 59°47' E 028°25'0 0.0
2017-Mar-25 11:33N 59°47' E 028°25'0 0.0
2017-Mar-25 10:33N 59°47' E 028°25'0 0.0
2017-Mar-25 09:33N 59°47' E 028°25'0 0.0
2017-Mar-25 08:33N 59°47' E 028°25'0 0.0
2017-Mar-25 07:33N 59°47' E 028°25'0 0.0
2017-Mar-25 06:32N 59°47' E 028°25'0 0.0
2017-Mar-25 05:33N 59°47' E 028°25'0 0.0
2017-Mar-25 04:34N 59°47' E 028°25'0 0.0
2017-Mar-25 03:34N 59°47' E 028°25'0 0.0
2017-Mar-25 02:34N 59°47' E 028°25'0 0.1
2017-Mar-25 01:33N 59°47' E 028°25'0 0.0
2017-Mar-25 00:33N 59°47' E 028°25'0 0.1
2017-Mar-24 23:33N 59°47' E 028°25'0 0.0
2017-Mar-24 22:33N 59°47' E 028°25'0 0.0
2017-Mar-24 21:33N 59°47' E 028°25'0 0.0
2017-Mar-24 20:33N 59°47' E 028°25'0 0.0
2017-Mar-24 19:33N 59°47' E 028°25'1 0.5
2017-Mar-24 18:17N 59°46' E 028°25'5 5.8
2017-Mar-24 17:28N 59°42' E 028°22'0 0.0
2017-Mar-24 16:28N 59°42' E 028°22'0 0.0
2017-Mar-24 15:31N 59°42' E 028°22'0 0.0
2017-Mar-24 14:31N 59°42' E 028°22'0 0.0
2017-Mar-24 13:31N 59°42' E 028°22'0 0.0
2017-Mar-24 12:31N 59°42' E 028°22'0 0.0
2017-Mar-24 11:31N 59°42' E 028°22'0 0.0
2017-Mar-24 10:31N 59°42' E 028°22'0 0.0
2017-Mar-24 08:31N 59°42' E 028°22'0 0.0
2017-Mar-24 07:31N 59°42' E 028°22'2 1.9
2017-Mar-24 06:33N 59°41' E 028°25'0 0.0
2017-Mar-24 05:33N 59°41' E 028°25'0 0.0
2017-Mar-24 04:33N 59°41' E 028°25'0 0.0
2017-Mar-24 03:33N 59°41' E 028°25'0 0.0
2017-Mar-24 02:33N 59°41' E 028°25'0 0.0
2017-Mar-24 01:33N 59°41' E 028°25'0 0.0
2017-Mar-24 00:33N 59°41' E 028°25'0 0.1
2017-Mar-23 23:34N 59°41' E 028°25'2 1.8
2017-Mar-23 22:33N 59°42' E 028°21'0 0.0
2017-Mar-23 20:24N 59°42' E 028°21'0 0.0
2017-Mar-23 19:33N 59°42' E 028°21'0 0.0
2017-Mar-23 18:24N 59°42' E 028°21'2 0.8
2017-Mar-23 15:33N 59°44' E 028°23'8 7.8
2017-Mar-23 14:33N 59°51' E 028°28'1110.7
2017-Mar-23 13:33N 59°56' E 028°47'30 3.3
2017-Mar-23 04:33N 59°56' E 029°46'0 0.0
2017-Mar-23 03:17N 59°56' E 029°46'0 0.0
2017-Mar-23 02:23N 59°56' E 029°46'0 0.0
2017-Mar-23 01:33N 59°56' E 029°46'0 0.0
2017-Mar-23 00:33N 59°56' E 029°46'0 0.0
2017-Mar-22 23:32N 59°56' E 029°46'0 0.0
2017-Mar-22 22:33N 59°56' E 029°46'1 1.4
2017-Mar-22 21:33N 59°57' E 029°47'9 9.2
2017-Mar-22 20:33N 59°54' E 030°05'5 4.5
2017-Mar-22 19:33N 59°53' E 030°13'0 0.1
2017-Mar-22 18:33N 59°53' E 030°14'0 0.0
2017-Mar-22 17:33N 59°53' E 030°14'0 0.0
2017-Mar-22 16:33N 59°53' E 030°14'0 0.0
2017-Mar-22 15:33N 59°53' E 030°14'0 0.0
2017-Mar-22 14:33N 59°53' E 030°14'0 0.0
2017-Mar-22 13:33N 59°53' E 030°14'0 0.0
2017-Mar-22 12:33N 59°53' E 030°14'0 0.0
2017-Mar-22 11:34N 59°53' E 030°14'0 0.0
2017-Mar-22 10:33N 59°53' E 030°14'0 0.0
2017-Mar-22 09:33N 59°53' E 030°14'0 0.0
2017-Mar-22 08:33N 59°53' E 030°14'0 0.1
2017-Mar-22 07:33N 59°53' E 030°13'0 0.0
2017-Mar-22 06:33N 59°53' E 030°13'0 0.0
2017-Mar-22 05:33N 59°53' E 030°13'0 0.0
2017-Mar-22 04:33N 59°53' E 030°13'1 1.3
2017-Mar-22 03:33N 59°53' E 030°11'9 9.0
2017-Mar-22 02:33N 59°56' E 029°54'28 3.5
2017-Mar-21 18:33N 60°01' E 028°60'1211.8
2017-Mar-21 17:33N 60°02' E 028°36'5 5.3
2017-Mar-21 16:33N 60°07' E 028°31'12 3.8
2017-Mar-21 13:17N 60°16' E 028°47'5 4.0
2017-Mar-21 12:03N 60°20' E 028°42'0 0.0
2017-Mar-21 11:32N 60°20' E 028°42'0 0.0
2017-Mar-21 10:29N 60°20' E 028°42'0 0.0
2017-Mar-21 09:30N 60°20' E 028°42'0 0.0
2017-Mar-21 08:33N 60°20' E 028°42'0 0.0
2017-Mar-21 07:30N 60°20' E 028°42'0 0.0
2017-Mar-21 06:33N 60°20' E 028°42'0 0.0
2017-Mar-21 05:33N 60°20' E 028°42'0 0.0
2017-Mar-21 04:15N 60°20' E 028°42'0 0.0
2017-Mar-21 03:25N 60°20' E 028°42'0 0.0
2017-Mar-21 01:07N 60°20' E 028°42'0 0.0
2017-Mar-21 00:20N 60°20' E 028°42'0 0.0
2017-Mar-20 23:28N 60°20' E 028°42'0 0.0
2017-Mar-20 22:32N 60°20' E 028°42'0 0.0
2017-Mar-20 17:28N 60°20' E 028°42'2 2.3
2017-Mar-20 16:29N 60°18' E 028°44'0 0.0
2017-Mar-20 15:33N 60°18' E 028°44'0 0.0
2017-Mar-20 14:33N 60°18' E 028°44'0 0.0
2017-Mar-20 13:33N 60°18' E 028°44'0 0.0
2017-Mar-20 12:33N 60°18' E 028°44'0 0.0
2017-Mar-20 11:33N 60°18' E 028°44'0 0.0
2017-Mar-20 10:27N 60°18' E 028°44'0 0.0
2017-Mar-20 09:33N 60°18' E 028°44'0 0.0
2017-Mar-20 08:33N 60°18' E 028°44'0 0.0
2017-Mar-20 07:33N 60°18' E 028°44'0 0.0
2017-Mar-20 06:33N 60°18' E 028°44'0 0.0
2017-Mar-20 05:33N 60°18' E 028°44'0 0.0
2017-Mar-20 04:33N 60°18' E 028°44'0 0.0
2017-Mar-20 03:33N 60°18' E 028°44'0 0.0
2017-Mar-20 02:32N 60°18' E 028°44'4 2.8
2017-Mar-20 01:09N 60°15' E 028°47'5 8.9
2017-Mar-20 00:33N 60°10' E 028°42'7 7.4
2017-Mar-19 23:33N 60°07' E 028°29'9 9.4
2017-Mar-19 22:33N 59°58' E 028°36'1211.6
2017-Mar-19 21:33N 59°47' E 028°25'  

Dump ship's entire track history